sensor_id;sensor_type;location;lat;lon;timestamp;temperature;humidity
17170;DHT22;8700;48.222;16.342;2022-09-25T00:00:18;15.50;99.90
17170;DHT22;8700;48.222;16.342;2022-09-25T00:03:39;15.50;99.90
17170;DHT22;8700;48.222;16.342;2022-09-25T00:07:00;15.40;99.90
17170;DHT22;8700;48.222;16.342;2022-09-25T00:10:22;15.40;99.90
17170;DHT22;8700;48.222;16.342;2022-09-25T00:13:44;15.30;99.90
17170;DHT22;8700;48.222;16.342;2022-09-25T00:17:10;15.30;99.90
17170;DHT22;8700;48.222;16.342;2022-09-25T00:20:32;15.30;99.90
17170;DHT22;8700;48.222;16.342;2022-09-25T00:23:52;15.30;99.90
17170;DHT22;8700;48.222;16.342;2022-09-25T00:27:15;15.30;99.90
17170;DHT22;8700;48.222;16.342;2022-09-25T00:30:39;15.30;99.90
17170;DHT22;8700;48.222;16.342;2022-09-25T00:34:04;15.10;99.90
17170;DHT22;8700;48.222;16.342;2022-09-25T00:37:25;15.10;99.90
17170;DHT22;8700;48.222;16.342;2022-09-25T00:40:47;15.10;99.90
17170;DHT22;8700;48.222;16.342;2022-09-25T00:48:20;14.90;99.90
17170;DHT22;8700;48.222;16.342;2022-09-25T00:51:46;14.90;99.90
17170;DHT22;8700;48.222;16.342;2022-09-25T00:55:09;14.90;99.90
17170;DHT22;8700;48.222;16.342;2022-09-25T00:58:32;15.00;99.90
17170;DHT22;8700;48.222;16.342;2022-09-25T01:01:55;14.90;99.90
17170;DHT22;8700;48.222;16.342;2022-09-25T01:05:18;15.00;99.90
17170;DHT22;8700;48.222;16.342;2022-09-25T01:08:42;15.00;99.90
17170;DHT22;8700;48.222;16.342;2022-09-25T01:12:05;15.00;99.90
17170;DHT22;8700;48.222;16.342;2022-09-25T01:15:33;15.00;99.90
17170;DHT22;8700;48.222;16.342;2022-09-25T01:19:02;14.90;99.90
17170;DHT22;8700;48.222;16.342;2022-09-25T01:22:35;14.80;99.90
17170;DHT22;8700;48.222;16.342;2022-09-25T01:26:28;14.80;99.90
17170;DHT22;8700;48.222;16.342;2022-09-25T01:30:03;14.90;99.90
17170;DHT22;8700;48.222;16.342;2022-09-25T01:33:30;14.80;99.90
17170;DHT22;8700;48.222;16.342;2022-09-25T01:36:58;14.70;99.90
17170;DHT22;8700;48.222;16.342;2022-09-25T01:40:24;14.80;99.90
17170;DHT22;8700;48.222;16.342;2022-09-25T01:43:50;14.90;99.90
17170;DHT22;8700;48.222;16.342;2022-09-25T01:47:17;15.10;99.90
17170;DHT22;8700;48.222;16.342;2022-09-25T01:50:43;15.10;99.90
17170;DHT22;8700;48.222;16.342;2022-09-25T01:54:10;15.20;99.90
17170;DHT22;8700;48.222;16.342;2022-09-25T01:57:37;15.30;99.90
17170;DHT22;8700;48.222;16.342;2022-09-25T02:01:04;15.20;99.90
17170;DHT22;8700;48.222;16.342;2022-09-25T02:04:30;15.10;99.90
17170;DHT22;8700;48.222;16.342;2022-09-25T02:07:57;15.00;99.90
17170;DHT22;8700;48.222;16.342;2022-09-25T02:11:20;15.10;99.90
17170;DHT22;8700;48.222;16.342;2022-09-25T02:14:47;15.10;99.90
17170;DHT22;8700;48.222;16.342;2022-09-25T02:18:12;15.00;99.90
17170;DHT22;8700;48.222;16.342;2022-09-25T02:21:59;14.80;99.90
17170;DHT22;8700;48.222;16.342;2022-09-25T02:25:29;14.80;99.90
17170;DHT22;8700;48.222;16.342;2022-09-25T02:28:56;14.90;99.90
17170;DHT22;8700;48.222;16.342;2022-09-25T02:32:24;14.90;99.90
17170;DHT22;8700;48.222;16.342;2022-09-25T02:35:47;15.10;99.90
17170;DHT22;8700;48.222;16.342;2022-09-25T02:39:17;15.00;99.90
17170;DHT22;8700;48.222;16.342;2022-09-25T02:42:43;15.10;99.90
17170;DHT22;8700;48.222;16.342;2022-09-25T02:46:13;15.00;99.90
17170;DHT22;8700;48.222;16.342;2022-09-25T02:49:46;15.10;99.90
17170;DHT22;8700;48.222;16.342;2022-09-25T02:53:14;15.10;99.90
17170;DHT22;8700;48.222;16.342;2022-09-25T02:56:45;15.20;99.90
17170;DHT22;8700;48.222;16.342;2022-09-25T03:00:08;15.20;99.90
17170;DHT22;8700;48.222;16.342;2022-09-25T03:03:30;15.20;99.90
17170;DHT22;8700;48.222;16.342;2022-09-25T03:06:52;15.10;99.90
17170;DHT22;8700;48.222;16.342;2022-09-25T03:10:15;15.00;99.90
17170;DHT22;8700;48.222;16.342;2022-09-25T03:13:39;14.90;99.90
17170;DHT22;8700;48.222;16.342;2022-09-25T03:17:02;14.70;99.90
17170;DHT22;8700;48.222;16.342;2022-09-25T03:20:24;14.60;99.90
17170;DHT22;8700;48.222;16.342;2022-09-25T03:23:46;14.60;99.90
17170;DHT22;8700;48.222;16.342;2022-09-25T03:27:10;14.70;99.90
17170;DHT22;8700;48.222;16.342;2022-09-25T03:30:33;14.70;99.90
17170;DHT22;8700;48.222;16.342;2022-09-25T03:33:56;14.70;99.90
17170;DHT22;8700;48.222;16.342;2022-09-25T03:37:18;14.80;99.90
17170;DHT22;8700;48.222;16.342;2022-09-25T03:40:39;14.80;99.90
17170;DHT22;8700;48.222;16.342;2022-09-25T03:44:01;14.70;99.90
17170;DHT22;8700;48.222;16.342;2022-09-25T03:47:24;14.60;99.90
17170;DHT22;8700;48.222;16.342;2022-09-25T03:50:45;14.60;99.90
17170;DHT22;8700;48.222;16.342;2022-09-25T03:54:08;14.60;99.90
17170;DHT22;8700;48.222;16.342;2022-09-25T03:57:30;14.60;99.90
17170;DHT22;8700;48.222;16.342;2022-09-25T04:00:51;14.60;99.90
17170;DHT22;8700;48.222;16.342;2022-09-25T04:04:17;14.60;99.90
17170;DHT22;8700;48.222;16.342;2022-09-25T04:07:39;14.60;99.90
17170;DHT22;8700;48.222;16.342;2022-09-25T04:11:01;14.60;99.90
17170;DHT22;8700;48.222;16.342;2022-09-25T04:14:22;14.40;99.90
17170;DHT22;8700;48.222;16.342;2022-09-25T04:17:44;14.40;99.90
17170;DHT22;8700;48.222;16.342;2022-09-25T04:21:08;14.40;99.90
17170;DHT22;8700;48.222;16.342;2022-09-25T04:24:32;14.50;99.90
17170;DHT22;8700;48.222;16.342;2022-09-25T04:28:08;14.50;99.90
17170;DHT22;8700;48.222;16.342;2022-09-25T04:31:30;14.40;99.90
17170;DHT22;8700;48.222;16.342;2022-09-25T04:34:51;14.40;99.90
17170;DHT22;8700;48.222;16.342;2022-09-25T04:38:13;14.40;99.90
17170;DHT22;8700;48.222;16.342;2022-09-25T04:41:35;14.30;99.90
17170;DHT22;8700;48.222;16.342;2022-09-25T04:44:56;14.30;99.90
17170;DHT22;8700;48.222;16.342;2022-09-25T04:48:18;14.30;99.90
17170;DHT22;8700;48.222;16.342;2022-09-25T04:51:39;14.10;99.90
17170;DHT22;8700;48.222;16.342;2022-09-25T04:55:02;14.00;99.90
17170;DHT22;8700;48.222;16.342;2022-09-25T04:58:23;14.10;99.90
17170;DHT22;8700;48.222;16.342;2022-09-25T05:01:46;14.10;99.90
17170;DHT22;8700;48.222;16.342;2022-09-25T05:05:08;14.20;99.90
17170;DHT22;8700;48.222;16.342;2022-09-25T05:08:30;14.20;99.90
17170;DHT22;8700;48.222;16.342;2022-09-25T05:11:53;14.40;99.90
17170;DHT22;8700;48.222;16.342;2022-09-25T05:15:14;14.40;99.90
17170;DHT22;8700;48.222;16.342;2022-09-25T05:18:36;14.40;99.90
17170;DHT22;8700;48.222;16.342;2022-09-25T05:21:57;14.30;99.90
17170;DHT22;8700;48.222;16.342;2022-09-25T05:25:18;14.40;99.90
17170;DHT22;8700;48.222;16.342;2022-09-25T05:28:43;14.50;99.90
17170;DHT22;8700;48.222;16.342;2022-09-25T05:32:09;14.60;99.90
17170;DHT22;8700;48.222;16.342;2022-09-25T05:35:31;14.60;99.90
17170;DHT22;8700;48.222;16.342;2022-09-25T05:38:53;14.60;99.90
17170;DHT22;8700;48.222;16.342;2022-09-25T05:42:14;14.50;99.90
17170;DHT22;8700;48.222;16.342;2022-09-25T05:45:39;14.70;99.90
17170;DHT22;8700;48.222;16.342;2022-09-25T05:49:01;14.80;99.90
17170;DHT22;8700;48.222;16.342;2022-09-25T05:52:23;14.70;99.90
17170;DHT22;8700;48.222;16.342;2022-09-25T05:55:48;14.60;99.90
17170;DHT22;8700;48.222;16.342;2022-09-25T05:59:10;14.60;99.90
17170;DHT22;8700;48.222;16.342;2022-09-25T06:02:33;14.70;99.90
17170;DHT22;8700;48.222;16.342;2022-09-25T06:05:54;14.90;99.90
17170;DHT22;8700;48.222;16.342;2022-09-25T06:09:16;15.10;99.90
17170;DHT22;8700;48.222;16.342;2022-09-25T06:12:38;15.30;99.90
17170;DHT22;8700;48.222;16.342;2022-09-25T06:16:00;15.40;99.90
17170;DHT22;8700;48.222;16.342;2022-09-25T06:19:23;15.40;99.90
17170;DHT22;8700;48.222;16.342;2022-09-25T06:22:50;15.60;99.90
17170;DHT22;8700;48.222;16.342;2022-09-25T06:26:12;15.70;99.90
17170;DHT22;8700;48.222;16.342;2022-09-25T06:29:33;15.80;99.90
17170;DHT22;8700;48.222;16.342;2022-09-25T06:32:58;15.90;99.90
17170;DHT22;8700;48.222;16.342;2022-09-25T06:36:21;16.10;99.90
17170;DHT22;8700;48.222;16.342;2022-09-25T06:39:42;16.20;99.90
17170;DHT22;8700;48.222;16.342;2022-09-25T06:43:04;16.40;99.90
17170;DHT22;8700;48.222;16.342;2022-09-25T06:46:26;16.40;99.90
17170;DHT22;8700;48.222;16.342;2022-09-25T06:49:47;16.50;99.90
17170;DHT22;8700;48.222;16.342;2022-09-25T06:53:11;16.60;99.90
17170;DHT22;8700;48.222;16.342;2022-09-25T06:56:32;16.50;99.90
17170;DHT22;8700;48.222;16.342;2022-09-25T06:59:54;16.60;99.90
17170;DHT22;8700;48.222;16.342;2022-09-25T07:03:15;16.50;99.90
17170;DHT22;8700;48.222;16.342;2022-09-25T07:06:54;16.60;99.90
17170;DHT22;8700;48.222;16.342;2022-09-25T07:10:19;16.70;99.90
17170;DHT22;8700;48.222;16.342;2022-09-25T07:13:40;16.80;99.90
17170;DHT22;8700;48.222;16.342;2022-09-25T07:17:01;16.80;99.90
17170;DHT22;8700;48.222;16.342;2022-09-25T07:20:23;16.80;99.90
17170;DHT22;8700;48.222;16.342;2022-09-25T07:23:46;16.80;99.90
17170;DHT22;8700;48.222;16.342;2022-09-25T07:27:10;16.80;99.90
17170;DHT22;8700;48.222;16.342;2022-09-25T07:30:32;16.80;99.90
17170;DHT22;8700;48.222;16.342;2022-09-25T07:33:53;16.80;99.90
17170;DHT22;8700;48.222;16.342;2022-09-25T07:37:15;16.80;99.90
17170;DHT22;8700;48.222;16.342;2022-09-25T07:40:37;16.70;99.90
17170;DHT22;8700;48.222;16.342;2022-09-25T07:43:59;16.70;99.90
17170;DHT22;8700;48.222;16.342;2022-09-25T07:47:21;16.80;99.90
17170;DHT22;8700;48.222;16.342;2022-09-25T07:50:42;16.90;99.90
17170;DHT22;8700;48.222;16.342;2022-09-25T07:54:04;17.00;99.90
17170;DHT22;8700;48.222;16.342;2022-09-25T07:57:28;17.00;99.90
17170;DHT22;8700;48.222;16.342;2022-09-25T08:00:51;17.10;99.90
17170;DHT22;8700;48.222;16.342;2022-09-25T08:04:13;17.20;99.90
17170;DHT22;8700;48.222;16.342;2022-09-25T08:07:34;17.10;99.90
17170;DHT22;8700;48.222;16.342;2022-09-25T08:10:58;17.10;99.90
17170;DHT22;8700;48.222;16.342;2022-09-25T08:14:24;16.80;99.90
17170;DHT22;8700;48.222;16.342;2022-09-25T08:17:47;16.90;99.90
17170;DHT22;8700;48.222;16.342;2022-09-25T08:21:09;17.40;99.90
17170;DHT22;8700;48.222;16.342;2022-09-25T08:24:32;17.60;99.90
17170;DHT22;8700;48.222;16.342;2022-09-25T08:27:54;17.60;99.90
17170;DHT22;8700;48.222;16.342;2022-09-25T08:31:15;17.70;99.90
17170;DHT22;8700;48.222;16.342;2022-09-25T08:34:38;17.40;99.90
17170;DHT22;8700;48.222;16.342;2022-09-25T08:38:01;17.60;99.90
17170;DHT22;8700;48.222;16.342;2022-09-25T08:41:24;17.40;99.90
17170;DHT22;8700;48.222;16.342;2022-09-25T08:44:49;17.20;99.90
17170;DHT22;8700;48.222;16.342;2022-09-25T08:48:35;17.40;99.90
17170;DHT22;8700;48.222;16.342;2022-09-25T08:52:18;17.80;99.90
17170;DHT22;8700;48.222;16.342;2022-09-25T08:55:42;17.60;99.90
17170;DHT22;8700;48.222;16.342;2022-09-25T08:59:32;17.80;99.90
17170;DHT22;8700;48.222;16.342;2022-09-25T09:02:56;17.60;99.90
17170;DHT22;8700;48.222;16.342;2022-09-25T09:06:18;17.80;99.90
17170;DHT22;8700;48.222;16.342;2022-09-25T09:09:46;17.50;99.90
17170;DHT22;8700;48.222;16.342;2022-09-25T09:13:16;17.10;99.90
17170;DHT22;8700;48.222;16.342;2022-09-25T09:16:42;17.20;99.90
17170;DHT22;8700;48.222;16.342;2022-09-25T09:20:16;17.30;99.90
17170;DHT22;8700;48.222;16.342;2022-09-25T09:23:44;17.20;99.90
17170;DHT22;8700;48.222;16.342;2022-09-25T09:27:20;17.40;99.90
17170;DHT22;8700;48.222;16.342;2022-09-25T09:30:49;17.70;99.90
17170;DHT22;8700;48.222;16.342;2022-09-25T09:34:35;17.80;99.90
17170;DHT22;8700;48.222;16.342;2022-09-25T09:38:08;17.50;99.90
17170;DHT22;8700;48.222;16.342;2022-09-25T09:41:40;17.20;99.90
17170;DHT22;8700;48.222;16.342;2022-09-25T09:45:11;17.30;99.90
17170;DHT22;8700;48.222;16.342;2022-09-25T09:48:39;17.40;99.90
17170;DHT22;8700;48.222;16.342;2022-09-25T09:52:08;17.40;99.90
17170;DHT22;8700;48.222;16.342;2022-09-25T09:55:36;17.30;99.90
17170;DHT22;8700;48.222;16.342;2022-09-25T09:59:01;17.20;99.90
17170;DHT22;8700;48.222;16.342;2022-09-25T10:02:31;17.20;99.90
17170;DHT22;8700;48.222;16.342;2022-09-25T10:05:56;17.10;99.90
17170;DHT22;8700;48.222;16.342;2022-09-25T10:09:19;17.40;99.90
17170;DHT22;8700;48.222;16.342;2022-09-25T10:12:44;17.50;99.90
17170;DHT22;8700;48.222;16.342;2022-09-25T10:16:09;17.20;99.90
17170;DHT22;8700;48.222;16.342;2022-09-25T10:19:41;17.20;99.90
17170;DHT22;8700;48.222;16.342;2022-09-25T10:23:05;17.20;99.90
17170;DHT22;8700;48.222;16.342;2022-09-25T10:26:28;17.40;99.90
17170;DHT22;8700;48.222;16.342;2022-09-25T10:30:14;17.40;99.90
17170;DHT22;8700;48.222;16.342;2022-09-25T10:33:37;17.40;99.90
17170;DHT22;8700;48.222;16.342;2022-09-25T10:37:13;17.40;99.90
17170;DHT22;8700;48.222;16.342;2022-09-25T10:40:40;17.40;99.90
17170;DHT22;8700;48.222;16.342;2022-09-25T10:44:02;17.40;99.90
17170;DHT22;8700;48.222;16.342;2022-09-25T10:47:29;17.30;99.90
17170;DHT22;8700;48.222;16.342;2022-09-25T10:51:09;17.20;99.90
17170;DHT22;8700;48.222;16.342;2022-09-25T10:54:33;16.90;99.90
17170;DHT22;8700;48.222;16.342;2022-09-25T10:58:01;17.00;99.90
17170;DHT22;8700;48.222;16.342;2022-09-25T11:01:31;17.00;99.90
17170;DHT22;8700;48.222;16.342;2022-09-25T11:04:55;17.00;99.90
17170;DHT22;8700;48.222;16.342;2022-09-25T11:08:16;16.80;99.90
17170;DHT22;8700;48.222;16.342;2022-09-25T11:11:40;17.00;99.90
17170;DHT22;8700;48.222;16.342;2022-09-25T11:15:04;17.20;99.90
17170;DHT22;8700;48.222;16.342;2022-09-25T11:18:38;17.10;99.90
17170;DHT22;8700;48.222;16.342;2022-09-25T11:22:04;17.20;99.90
17170;DHT22;8700;48.222;16.342;2022-09-25T11:25:34;16.90;99.90
17170;DHT22;8700;48.222;16.342;2022-09-25T11:29:05;17.10;99.90
17170;DHT22;8700;48.222;16.342;2022-09-25T11:32:36;17.10;99.90
17170;DHT22;8700;48.222;16.342;2022-09-25T11:36:03;17.00;99.90
17170;DHT22;8700;48.222;16.342;2022-09-25T11:39:30;17.10;99.90
17170;DHT22;8700;48.222;16.342;2022-09-25T11:43:12;16.90;99.90
17170;DHT22;8700;48.222;16.342;2022-09-25T11:46:44;16.80;99.90
17170;DHT22;8700;48.222;16.342;2022-09-25T11:50:12;16.90;99.90
17170;DHT22;8700;48.222;16.342;2022-09-25T11:53:40;17.40;99.90
17170;DHT22;8700;48.222;16.342;2022-09-25T11:57:09;17.40;99.90
17170;DHT22;8700;48.222;16.342;2022-09-25T12:00:36;17.30;99.90
17170;DHT22;8700;48.222;16.342;2022-09-25T12:04:32;17.10;99.90
17170;DHT22;8700;48.222;16.342;2022-09-25T12:08:13;17.00;99.90
17170;DHT22;8700;48.222;16.342;2022-09-25T12:11:42;17.10;99.90
17170;DHT22;8700;48.222;16.342;2022-09-25T12:15:16;17.40;99.90
17170;DHT22;8700;48.222;16.342;2022-09-25T12:18:55;17.70;99.90
17170;DHT22;8700;48.222;16.342;2022-09-25T12:22:26;17.50;99.90
17170;DHT22;8700;48.222;16.342;2022-09-25T12:26:05;17.10;99.90
17170;DHT22;8700;48.222;16.342;2022-09-25T12:29:41;17.00;99.90
17170;DHT22;8700;48.222;16.342;2022-09-25T12:33:20;17.40;99.90
17170;DHT22;8700;48.222;16.342;2022-09-25T12:36:47;17.20;99.90
17170;DHT22;8700;48.222;16.342;2022-09-25T12:40:16;17.10;99.90
17170;DHT22;8700;48.222;16.342;2022-09-25T12:43:45;17.40;99.90
17170;DHT22;8700;48.222;16.342;2022-09-25T12:47:12;17.90;99.90
17170;DHT22;8700;48.222;16.342;2022-09-25T12:50:42;18.10;99.90
17170;DHT22;8700;48.222;16.342;2022-09-25T12:54:14;18.30;99.90
17170;DHT22;8700;48.222;16.342;2022-09-25T12:57:43;18.50;99.90
17170;DHT22;8700;48.222;16.342;2022-09-25T13:01:11;18.80;99.90
17170;DHT22;8700;48.222;16.342;2022-09-25T13:04:53;19.30;99.90
17170;DHT22;8700;48.222;16.342;2022-09-25T13:08:21;19.30;99.90
17170;DHT22;8700;48.222;16.342;2022-09-25T13:11:50;18.80;99.90
17170;DHT22;8700;48.222;16.342;2022-09-25T13:15:18;18.60;99.90
17170;DHT22;8700;48.222;16.342;2022-09-25T13:18:46;18.40;99.90
17170;DHT22;8700;48.222;16.342;2022-09-25T13:22:09;18.40;99.90
17170;DHT22;8700;48.222;16.342;2022-09-25T13:25:40;18.50;99.90
17170;DHT22;8700;48.222;16.342;2022-09-25T13:29:05;18.60;99.90
17170;DHT22;8700;48.222;16.342;2022-09-25T13:32:30;18.50;99.90
17170;DHT22;8700;48.222;16.342;2022-09-25T13:36:06;18.50;99.90
17170;DHT22;8700;48.222;16.342;2022-09-25T13:39:31;18.40;99.90
17170;DHT22;8700;48.222;16.342;2022-09-25T13:43:18;18.30;99.90
17170;DHT22;8700;48.222;16.342;2022-09-25T13:46:43;17.90;99.90
17170;DHT22;8700;48.222;16.342;2022-09-25T13:50:17;17.80;99.90
17170;DHT22;8700;48.222;16.342;2022-09-25T13:53:50;17.70;99.90
17170;DHT22;8700;48.222;16.342;2022-09-25T13:57:15;17.50;99.90
17170;DHT22;8700;48.222;16.342;2022-09-25T14:00:51;17.50;99.90
17170;DHT22;8700;48.222;16.342;2022-09-25T14:04:38;17.70;99.90
17170;DHT22;8700;48.222;16.342;2022-09-25T14:08:05;17.70;99.90
17170;DHT22;8700;48.222;16.342;2022-09-25T14:11:31;17.60;99.90
17170;DHT22;8700;48.222;16.342;2022-09-25T14:14:56;17.50;99.90
17170;DHT22;8700;48.222;16.342;2022-09-25T14:18:24;17.50;99.90
17170;DHT22;8700;48.222;16.342;2022-09-25T14:21:47;17.50;99.90
17170;DHT22;8700;48.222;16.342;2022-09-25T14:25:32;17.40;99.90
17170;DHT22;8700;48.222;16.342;2022-09-25T14:28:56;17.40;99.90
17170;DHT22;8700;48.222;16.342;2022-09-25T14:32:33;17.40;99.90
17170;DHT22;8700;48.222;16.342;2022-09-25T14:36:06;17.30;99.90
17170;DHT22;8700;48.222;16.342;2022-09-25T14:39:37;17.20;99.90
17170;DHT22;8700;48.222;16.342;2022-09-25T14:43:12;17.30;99.90
17170;DHT22;8700;48.222;16.342;2022-09-25T14:46:35;17.10;99.90
17170;DHT22;8700;48.222;16.342;2022-09-25T14:49:57;17.10;99.90
17170;DHT22;8700;48.222;16.342;2022-09-25T14:53:23;17.10;99.90
17170;DHT22;8700;48.222;16.342;2022-09-25T14:56:49;17.20;99.90
17170;DHT22;8700;48.222;16.342;2022-09-25T15:00:16;17.20;99.90
17170;DHT22;8700;48.222;16.342;2022-09-25T15:03:45;17.30;99.90
17170;DHT22;8700;48.222;16.342;2022-09-25T15:07:14;17.40;99.90
17170;DHT22;8700;48.222;16.342;2022-09-25T15:10:37;17.20;99.90
17170;DHT22;8700;48.222;16.342;2022-09-25T15:14:09;17.00;99.90
17170;DHT22;8700;48.222;16.342;2022-09-25T15:17:37;17.00;99.90
17170;DHT22;8700;48.222;16.342;2022-09-25T15:21:07;17.10;99.90
17170;DHT22;8700;48.222;16.342;2022-09-25T15:24:30;17.10;99.90
17170;DHT22;8700;48.222;16.342;2022-09-25T15:27:54;17.20;99.90
17170;DHT22;8700;48.222;16.342;2022-09-25T15:31:15;17.20;99.90
17170;DHT22;8700;48.222;16.342;2022-09-25T15:34:38;17.10;99.90
17170;DHT22;8700;48.222;16.342;2022-09-25T15:38:06;17.10;99.90
17170;DHT22;8700;48.222;16.342;2022-09-25T15:41:28;17.10;99.90
17170;DHT22;8700;48.222;16.342;2022-09-25T15:44:50;17.10;99.90
17170;DHT22;8700;48.222;16.342;2022-09-25T15:48:21;17.00;99.90
17170;DHT22;8700;48.222;16.342;2022-09-25T15:51:50;17.00;99.90
17170;DHT22;8700;48.222;16.342;2022-09-25T15:55:12;16.90;99.90
17170;DHT22;8700;48.222;16.342;2022-09-25T15:58:42;16.90;99.90
17170;DHT22;8700;48.222;16.342;2022-09-25T16:02:17;16.80;99.90
17170;DHT22;8700;48.222;16.342;2022-09-25T16:06:11;16.60;99.90
17170;DHT22;8700;48.222;16.342;2022-09-25T16:09:34;16.60;99.90
17170;DHT22;8700;48.222;16.342;2022-09-25T16:12:56;16.50;99.90
17170;DHT22;8700;48.222;16.342;2022-09-25T16:16:20;16.40;99.90
17170;DHT22;8700;48.222;16.342;2022-09-25T16:19:43;16.40;99.90
17170;DHT22;8700;48.222;16.342;2022-09-25T16:23:21;16.30;99.90
17170;DHT22;8700;48.222;16.342;2022-09-25T16:26:53;16.40;99.90
17170;DHT22;8700;48.222;16.342;2022-09-25T16:30:16;16.30;99.90
17170;DHT22;8700;48.222;16.342;2022-09-25T16:33:41;16.20;99.90
17170;DHT22;8700;48.222;16.342;2022-09-25T16:37:05;16.20;99.90
17170;DHT22;8700;48.222;16.342;2022-09-25T16:40:28;16.10;99.90
17170;DHT22;8700;48.222;16.342;2022-09-25T16:44:09;16.10;99.90
17170;DHT22;8700;48.222;16.342;2022-09-25T16:47:33;16.20;99.90
17170;DHT22;8700;48.222;16.342;2022-09-25T16:50:57;16.10;99.90
17170;DHT22;8700;48.222;16.342;2022-09-25T16:54:20;16.00;99.90
17170;DHT22;8700;48.222;16.342;2022-09-25T16:57:51;16.00;99.90
17170;DHT22;8700;48.222;16.342;2022-09-25T17:01:14;16.20;99.90
17170;DHT22;8700;48.222;16.342;2022-09-25T17:04:42;16.20;99.90
17170;DHT22;8700;48.222;16.342;2022-09-25T17:08:15;16.10;99.90
17170;DHT22;8700;48.222;16.342;2022-09-25T17:11:36;16.00;99.90
17170;DHT22;8700;48.222;16.342;2022-09-25T17:14:58;16.10;99.90
17170;DHT22;8700;48.222;16.342;2022-09-25T17:18:21;16.30;99.90
17170;DHT22;8700;48.222;16.342;2022-09-25T17:21:43;16.40;99.90
17170;DHT22;8700;48.222;16.342;2022-09-25T17:25:15;16.40;99.90
17170;DHT22;8700;48.222;16.342;2022-09-25T17:28:39;16.40;99.90
17170;DHT22;8700;48.222;16.342;2022-09-25T17:32:00;16.40;99.90
17170;DHT22;8700;48.222;16.342;2022-09-25T17:35:37;16.40;99.90
17170;DHT22;8700;48.222;16.342;2022-09-25T17:39:00;16.40;99.90
17170;DHT22;8700;48.222;16.342;2022-09-25T17:42:21;16.30;99.90
17170;DHT22;8700;48.222;16.342;2022-09-25T17:45:46;16.30;99.90
17170;DHT22;8700;48.222;16.342;2022-09-25T17:49:09;16.20;99.90
17170;DHT22;8700;48.222;16.342;2022-09-25T17:52:34;16.20;99.90
17170;DHT22;8700;48.222;16.342;2022-09-25T17:55:56;16.20;99.90
17170;DHT22;8700;48.222;16.342;2022-09-25T17:59:17;16.20;99.90
17170;DHT22;8700;48.222;16.342;2022-09-25T18:02:40;16.20;99.90
17170;DHT22;8700;48.222;16.342;2022-09-25T18:06:01;16.20;99.90
17170;DHT22;8700;48.222;16.342;2022-09-25T18:09:24;16.20;99.90
17170;DHT22;8700;48.222;16.342;2022-09-25T18:12:46;16.10;99.90
17170;DHT22;8700;48.222;16.342;2022-09-25T18:16:13;16.10;99.90
17170;DHT22;8700;48.222;16.342;2022-09-25T18:19:37;16.10;99.90
17170;DHT22;8700;48.222;16.342;2022-09-25T18:23:17;16.10;99.90
17170;DHT22;8700;48.222;16.342;2022-09-25T18:26:39;16.10;99.90
17170;DHT22;8700;48.222;16.342;2022-09-25T18:30:01;16.00;99.90
17170;DHT22;8700;48.222;16.342;2022-09-25T18:33:22;16.10;99.90
17170;DHT22;8700;48.222;16.342;2022-09-25T18:36:44;16.20;99.90
17170;DHT22;8700;48.222;16.342;2022-09-25T18:40:08;16.30;99.90
17170;DHT22;8700;48.222;16.342;2022-09-25T18:43:31;16.20;99.90
17170;DHT22;8700;48.222;16.342;2022-09-25T18:46:52;16.10;99.90
17170;DHT22;8700;48.222;16.342;2022-09-25T18:50:14;16.00;99.90
17170;DHT22;8700;48.222;16.342;2022-09-25T18:53:36;16.00;99.90
17170;DHT22;8700;48.222;16.342;2022-09-25T18:56:59;16.00;99.90
17170;DHT22;8700;48.222;16.342;2022-09-25T19:00:22;16.00;99.90
17170;DHT22;8700;48.222;16.342;2022-09-25T19:03:48;16.10;99.90
17170;DHT22;8700;48.222;16.342;2022-09-25T19:07:10;16.10;99.90
17170;DHT22;8700;48.222;16.342;2022-09-25T19:10:32;16.10;99.90
17170;DHT22;8700;48.222;16.342;2022-09-25T19:13:54;16.10;99.90
17170;DHT22;8700;48.222;16.342;2022-09-25T19:17:18;16.10;99.90
17170;DHT22;8700;48.222;16.342;2022-09-25T19:20:45;16.10;99.90
17170;DHT22;8700;48.222;16.342;2022-09-25T19:24:08;16.10;99.90
17170;DHT22;8700;48.222;16.342;2022-09-25T19:27:30;16.10;99.90
17170;DHT22;8700;48.222;16.342;2022-09-25T19:30:56;16.10;99.90
17170;DHT22;8700;48.222;16.342;2022-09-25T19:34:20;16.10;99.90
17170;DHT22;8700;48.222;16.342;2022-09-25T19:37:41;16.10;99.90
17170;DHT22;8700;48.222;16.342;2022-09-25T19:41:08;16.10;99.90
17170;DHT22;8700;48.222;16.342;2022-09-25T19:44:31;16.20;99.90
17170;DHT22;8700;48.222;16.342;2022-09-25T19:47:52;16.10;99.90
17170;DHT22;8700;48.222;16.342;2022-09-25T19:51:17;16.20;99.90
17170;DHT22;8700;48.222;16.342;2022-09-25T19:54:39;16.20;99.90
17170;DHT22;8700;48.222;16.342;2022-09-25T19:58:01;16.20;99.90
17170;DHT22;8700;48.222;16.342;2022-09-25T20:01:26;16.20;99.90
17170;DHT22;8700;48.222;16.342;2022-09-25T20:04:49;16.20;99.90
17170;DHT22;8700;48.222;16.342;2022-09-25T20:08:11;16.20;99.90
17170;DHT22;8700;48.222;16.342;2022-09-25T20:11:34;16.20;99.90
17170;DHT22;8700;48.222;16.342;2022-09-25T20:14:55;16.10;99.90
17170;DHT22;8700;48.222;16.342;2022-09-25T20:18:17;16.30;99.90
17170;DHT22;8700;48.222;16.342;2022-09-25T20:21:38;16.20;99.90
17170;DHT22;8700;48.222;16.342;2022-09-25T20:25:02;16.30;99.90
17170;DHT22;8700;48.222;16.342;2022-09-25T20:28:23;16.20;99.90
17170;DHT22;8700;48.222;16.342;2022-09-25T20:31:45;16.20;99.90
17170;DHT22;8700;48.222;16.342;2022-09-25T20:35:07;16.20;99.90
17170;DHT22;8700;48.222;16.342;2022-09-25T20:38:28;16.20;99.90
17170;DHT22;8700;48.222;16.342;2022-09-25T20:41:51;16.10;99.90
17170;DHT22;8700;48.222;16.342;2022-09-25T20:45:13;16.10;99.90
17170;DHT22;8700;48.222;16.342;2022-09-25T20:48:35;16.10;99.90
17170;DHT22;8700;48.222;16.342;2022-09-25T20:51:57;16.10;99.90
17170;DHT22;8700;48.222;16.342;2022-09-25T20:55:18;16.10;99.90
17170;DHT22;8700;48.222;16.342;2022-09-25T20:58:43;16.10;99.90
17170;DHT22;8700;48.222;16.342;2022-09-25T21:02:05;16.00;99.90
17170;DHT22;8700;48.222;16.342;2022-09-25T21:05:27;16.00;99.90
17170;DHT22;8700;48.222;16.342;2022-09-25T21:08:50;16.10;99.90
17170;DHT22;8700;48.222;16.342;2022-09-25T21:12:12;16.00;99.90
17170;DHT22;8700;48.222;16.342;2022-09-25T21:15:35;16.00;99.90
17170;DHT22;8700;48.222;16.342;2022-09-25T21:18:58;16.00;99.90
17170;DHT22;8700;48.222;16.342;2022-09-25T21:22:19;16.00;99.90
17170;DHT22;8700;48.222;16.342;2022-09-25T21:25:41;16.00;99.90
17170;DHT22;8700;48.222;16.342;2022-09-25T21:29:03;16.00;99.90
17170;DHT22;8700;48.222;16.342;2022-09-25T21:32:28;16.00;99.90
17170;DHT22;8700;48.222;16.342;2022-09-25T21:35:50;16.00;99.90
17170;DHT22;8700;48.222;16.342;2022-09-25T21:39:11;16.00;99.90
17170;DHT22;8700;48.222;16.342;2022-09-25T21:42:33;16.00;99.90